createdAt,value
2022-08-27T00:00:45.944Z,52.11
2022-08-27T00:03:13.671Z,51.99
2022-08-27T00:05:41.704Z,52.58
2022-08-27T00:08:12.634Z,52.42
2022-08-27T00:10:40.808Z,52.42
2022-08-27T00:13:08.443Z,52.56
2022-08-27T00:15:36.103Z,52.73
2022-08-27T00:18:04.065Z,52.75
2022-08-27T00:20:31.417Z,52.77
2022-08-27T00:22:58.570Z,53.37
2022-08-27T00:25:25.702Z,53.39
2022-08-27T00:27:52.875Z,53.35
2022-08-27T00:30:22.688Z,53.04
2022-08-27T00:32:50.261Z,53.19
2022-08-27T00:35:18.703Z,53.43
2022-08-27T00:37:46.132Z,53.25
2022-08-27T00:40:17.541Z,53.15
2022-08-27T00:42:46.168Z,53.56
2022-08-27T00:45:20.347Z,53.57
2022-08-27T00:47:54.469Z,53.52
2022-08-27T00:50:28.753Z,53.78
2022-08-27T00:52:59.417Z,54.03
2022-08-27T00:55:35.901Z,54.46
2022-08-27T00:58:11.258Z,54.52
2022-08-27T01:00:38.735Z,54.65
2022-08-27T01:03:07.239Z,54.87
2022-08-27T01:05:36.128Z,54.84
2022-08-27T01:08:09.764Z,54.88
2022-08-27T01:10:38.655Z,54.97
2022-08-27T01:13:11.847Z,55.08
2022-08-27T01:15:41.224Z,54.94
2022-08-27T01:18:10.499Z,54.84
2022-08-27T01:21:10.021Z,55.00
2022-08-27T01:24:13.953Z,54.44
2022-08-27T01:26:41.784Z,53.84
2022-08-27T01:29:11.835Z,53.59
2022-08-27T01:31:39.361Z,53.50
2022-08-27T01:34:07.028Z,53.33
2022-08-27T01:36:34.417Z,53.39
2022-08-27T01:39:01.544Z,53.46
2022-08-27T01:41:28.833Z,53.36
2022-08-27T01:43:56.158Z,53.70
2022-08-27T01:46:28.661Z,53.74
2022-08-27T01:48:56.407Z,53.33
2022-08-27T01:51:23.556Z,52.80
2022-08-27T01:53:50.963Z,52.84
2022-08-27T01:56:18.340Z,52.85
2022-08-27T01:58:45.696Z,52.48
2022-08-27T02:01:16.894Z,52.85
2022-08-27T02:03:44.816Z,52.41
2022-08-27T02:06:12.245Z,51.98
2022-08-27T02:08:39.719Z,52.47
2022-08-27T02:11:08.515Z,52.57
2022-08-27T02:13:36.331Z,53.47
2022-08-27T02:16:04.099Z,52.39
2022-08-27T02:18:31.320Z,53.01
2022-08-27T02:20:58.429Z,52.30
2022-08-27T02:23:26.204Z,52.10
2022-08-27T02:25:53.350Z,52.93
2022-08-27T02:28:20.524Z,52.93
2022-08-27T02:30:47.696Z,52.83
2022-08-27T02:33:15.363Z,53.05
2022-08-27T02:35:44.368Z,51.84
2022-08-27T02:38:13.201Z,51.67
2022-08-27T02:40:40.919Z,51.62
2022-08-27T02:43:09.028Z,51.57
2022-08-27T02:45:37.582Z,52.42
2022-08-27T02:48:05.708Z,52.27
2022-08-27T02:50:33.694Z,52.14
2022-08-27T02:53:02.417Z,52.39
2022-08-27T02:55:30.230Z,51.46
2022-08-27T02:57:57.848Z,51.74
2022-08-27T03:00:26.163Z,51.91
2022-08-27T03:02:53.372Z,51.68
2022-08-27T03:05:21.430Z,52.20
2022-08-27T03:07:49.660Z,52.18
2022-08-27T03:10:18.601Z,52.36
2022-08-27T03:12:45.727Z,53.09
2022-08-27T03:15:17.360Z,51.86
2022-08-27T03:18:03.238Z,51.75
2022-08-27T03:20:30.627Z,50.89
2022-08-27T03:22:57.785Z,51.96
2022-08-27T03:25:25.375Z,51.01
2022-08-27T03:27:52.563Z,51.08
2022-08-27T03:30:22.160Z,50.96
2022-08-27T03:32:50.362Z,51.75
2022-08-27T03:35:19.454Z,51.95
2022-08-27T03:37:47.223Z,50.22
2022-08-27T03:40:15.521Z,48.28
2022-08-27T03:42:43.789Z,48.56
2022-08-27T03:45:11.626Z,49.76
2022-08-27T03:47:38.951Z,50.27
2022-08-27T03:50:07.279Z,50.67
2022-08-27T03:52:35.918Z,51.23
2022-08-27T03:55:06.447Z,51.37
2022-08-27T03:57:33.869Z,51.47
2022-08-27T04:00:01.323Z,52.12
2022-08-27T04:02:31.488Z,51.68
2022-08-27T04:04:58.621Z,51.37
2022-08-27T04:07:25.729Z,51.77
2022-08-27T04:09:52.889Z,51.08
2022-08-27T04:12:20.075Z,51.09
2022-08-27T04:14:47.317Z,51.15
2022-08-27T04:17:14.443Z,51.22
2022-08-27T04:19:41.793Z,51.51
2022-08-27T04:22:09.377Z,51.92
2022-08-27T04:24:37.653Z,51.37
2022-08-27T04:27:05.840Z,52.04
2022-08-27T04:29:33.268Z,52.16
2022-08-27T04:32:01.220Z,50.93
2022-08-27T04:34:28.502Z,51.27
2022-08-27T04:36:57.294Z,51.70
2022-08-27T04:39:29.088Z,51.04
2022-08-27T04:41:58.636Z,50.25
2022-08-27T04:44:28.994Z,50.59
2022-08-27T04:46:57.696Z,50.85
2022-08-27T04:49:27.060Z,51.13
2022-08-27T04:51:55.121Z,51.17
2022-08-27T04:54:32.675Z,51.05
2022-08-27T04:57:05.073Z,50.43
2022-08-27T04:59:33.155Z,49.73
2022-08-27T05:02:03.601Z,50.00
2022-08-27T05:04:32.026Z,49.24
2022-08-27T05:07:00.694Z,49.53
2022-08-27T05:09:27.983Z,50.02
2022-08-27T05:11:55.665Z,49.76
2022-08-27T05:14:24.243Z,49.53
2022-08-27T05:16:51.702Z,49.08
2022-08-27T05:19:18.853Z,50.11
2022-08-27T05:21:51.691Z,49.88
2022-08-27T05:24:19.385Z,49.10
2022-08-27T05:26:46.692Z,48.92
2022-08-27T05:29:14.432Z,49.49
2022-08-27T05:31:42.199Z,48.28
2022-08-27T05:34:10.630Z,48.10
2022-08-27T05:36:48.940Z,48.27
2022-08-27T05:39:17.446Z,47.84
2022-08-27T05:41:44.795Z,47.92
2022-08-27T05:44:39.540Z,47.60
2022-08-27T05:46:59.094Z,46.94
2022-08-27T05:49:26.210Z,46.07
2022-08-27T05:51:53.472Z,45.48
2022-08-27T05:54:20.683Z,45.76
2022-08-27T05:56:51.734Z,45.75
2022-08-27T05:59:37.974Z,45.84
2022-08-27T06:02:07.130Z,45.09
2022-08-27T06:04:34.757Z,45.49
2022-08-27T06:07:01.957Z,44.99
2022-08-27T06:09:29.603Z,44.40
2022-08-27T06:11:59.157Z,43.02
2022-08-27T06:14:26.673Z,43.53
2022-08-27T06:16:54.087Z,43.41
2022-08-27T06:19:21.317Z,43.37
2022-08-27T06:22:00.047Z,42.27
2022-08-27T06:24:27.816Z,42.13
2022-08-27T06:26:54.941Z,41.23
2022-08-27T06:29:23.749Z,40.79
2022-08-27T06:31:52.599Z,41.42
2022-08-27T06:34:19.771Z,41.44
2022-08-27T06:36:46.927Z,41.18
2022-08-27T06:39:15.626Z,40.88
2022-08-27T06:41:44.222Z,40.14
2022-08-27T06:44:13.062Z,39.94
2022-08-27T06:46:40.754Z,39.17
2022-08-27T06:49:08.874Z,38.75
2022-08-27T06:51:38.332Z,38.22
2022-08-27T06:54:09.662Z,37.89
2022-08-27T06:56:36.906Z,37.45
2022-08-27T06:59:06.340Z,37.82
2022-08-27T07:01:42.728Z,37.32
2022-08-27T07:04:14.138Z,36.62
2022-08-27T07:06:41.914Z,36.12
2022-08-27T07:09:10.194Z,35.58
2022-08-27T07:11:38.504Z,35.77
2022-08-27T07:14:06.741Z,35.05
2022-08-27T07:16:34.240Z,35.48
2022-08-27T07:19:04.285Z,35.45
2022-08-27T07:21:32.390Z,35.95
2022-08-27T07:24:04.838Z,35.18
2022-08-27T07:26:35.240Z,33.75
2022-08-27T07:29:03.090Z,33.84
2022-08-27T07:31:30.771Z,33.58
2022-08-27T07:33:58.028Z,33.47
2022-08-27T07:36:25.176Z,33.60
2022-08-27T07:38:59.286Z,33.09
2022-08-27T07:41:31.847Z,32.90
2022-08-27T07:44:20.863Z,33.33
2022-08-27T07:46:49.426Z,33.74
2022-08-27T07:49:17.839Z,33.51
2022-08-27T07:51:45.326Z,32.78
2022-08-27T07:54:12.567Z,31.92
2022-08-27T07:56:39.847Z,31.99
2022-08-27T07:59:07.733Z,31.75
2022-08-27T08:01:34.990Z,30.91
2022-08-27T08:04:02.866Z,31.22
2022-08-27T08:06:30.016Z,31.51
2022-08-27T08:08:58.804Z,30.89
2022-08-27T08:11:26.512Z,31.22
2022-08-27T08:13:53.764Z,31.58
2022-08-27T08:16:29.568Z,30.81
2022-08-27T08:19:00.374Z,30.14
2022-08-27T08:21:27.987Z,30.37
2022-08-27T08:23:55.261Z,29.55
2022-08-27T08:26:23.260Z,29.61
2022-08-27T08:28:50.491Z,28.87
2022-08-27T08:31:17.807Z,29.38
2022-08-27T08:33:46.337Z,29.52
2022-08-27T08:36:16.075Z,29.42
2022-08-27T08:38:44.711Z,28.12
2022-08-27T08:41:24.224Z,28.37
2022-08-27T08:43:51.910Z,28.83
2022-08-27T08:46:36.823Z,27.63
2022-08-27T08:49:23.741Z,27.41
2022-08-27T08:51:55.890Z,27.58
2022-08-27T08:54:30.706Z,27.55
2022-08-27T08:57:39.700Z,27.76
2022-08-27T09:00:14.264Z,26.26
2022-08-27T09:02:52.150Z,26.42
2022-08-27T09:05:19.881Z,25.89
2022-08-27T09:08:21.801Z,26.46
2022-08-27T09:11:05.453Z,26.29
2022-08-27T09:13:38.426Z,26.36
2022-08-27T09:16:06.552Z,25.28
2022-08-27T09:18:37.844Z,25.59
2022-08-27T09:21:29.666Z,25.23
2022-08-27T09:23:57.454Z,24.80
2022-08-27T09:26:27.849Z,25.28
2022-08-27T09:29:18.579Z,25.60
2022-08-27T09:32:09.396Z,25.52
2022-08-27T09:34:39.411Z,25.64
2022-08-27T09:37:10.362Z,26.81
2022-08-27T09:39:43.602Z,26.90
2022-08-27T09:42:28.115Z,25.72
2022-08-27T09:44:55.873Z,26.08
2022-08-27T09:47:24.195Z,26.85
2022-08-27T09:50:09.906Z,25.65
2022-08-27T09:52:51.368Z,25.21
2022-08-27T09:55:48.370Z,25.09
2022-08-27T09:58:21.974Z,24.81
2022-08-27T10:00:58.622Z,25.33
2022-08-27T10:03:27.999Z,24.85
2022-08-27T10:06:01.472Z,24.55
2022-08-27T10:08:47.307Z,24.70
2022-08-27T10:11:21.096Z,24.74
2022-08-27T10:14:03.905Z,24.41
2022-08-27T10:16:31.252Z,25.13
2022-08-27T10:19:32.493Z,24.63
2022-08-27T10:22:39.474Z,24.95
2022-08-27T10:25:28.552Z,24.67
2022-08-27T10:28:24.211Z,24.62
2022-08-27T10:31:16.292Z,24.54
2022-08-27T10:33:52.467Z,24.70
2022-08-27T10:36:26.747Z,25.29
2022-08-27T10:39:08.909Z,25.07
2022-08-27T10:41:45.776Z,25.46
2022-08-27T10:44:17.404Z,25.35
2022-08-27T10:46:49.944Z,25.31
2022-08-27T10:49:24.294Z,25.83
2022-08-27T10:52:18.298Z,25.76
2022-08-27T10:54:57.065Z,26.10
2022-08-27T10:57:58.962Z,25.89
2022-08-27T11:00:48.891Z,25.60
2022-08-27T11:03:32.291Z,26.13
2022-08-27T11:06:24.209Z,25.87
2022-08-27T11:08:57.690Z,25.70
2022-08-27T11:14:37.699Z,25.92
2022-08-27T11:17:12.175Z,25.64
2022-08-27T11:20:14.298Z,26.01
2022-08-27T11:22:59.793Z,26.19
2022-08-27T11:25:46.765Z,25.99
2022-08-27T11:28:14.672Z,25.72
2022-08-27T11:31:12.859Z,26.28
2022-08-27T11:34:12.324Z,25.63
2022-08-27T11:37:11.370Z,25.49
2022-08-27T11:39:53.703Z,26.02
2022-08-27T11:42:45.683Z,24.76
2022-08-27T11:45:20.008Z,25.37
2022-08-27T11:47:55.952Z,25.36
2022-08-27T11:50:25.724Z,25.50
2022-08-27T11:53:03.209Z,25.35
2022-08-27T11:55:39.278Z,25.45
2022-08-27T11:58:18.355Z,25.62
2022-08-27T12:00:48.340Z,25.49
2022-08-27T12:03:32.491Z,25.54
2022-08-27T12:05:59.739Z,25.70
2022-08-27T12:08:31.815Z,25.77
2022-08-27T12:11:26.901Z,25.47
2022-08-27T12:14:13.209Z,24.73
2022-08-27T12:16:48.235Z,24.67
2022-08-27T12:19:45.907Z,24.86
2022-08-27T12:23:00.366Z,24.60
2022-08-27T12:25:27.772Z,23.83
2022-08-27T12:28:05.578Z,23.89
2022-08-27T12:30:37.386Z,24.29
2022-08-27T12:33:14.248Z,24.57
2022-08-27T12:35:50.650Z,24.17
2022-08-27T12:38:46.287Z,23.78
2022-08-27T12:41:25.644Z,23.83
2022-08-27T12:44:09.685Z,23.96
2022-08-27T12:46:51.674Z,24.01
2022-08-27T12:49:38.199Z,24.11
2022-08-27T12:52:20.358Z,24.37
2022-08-27T12:54:59.946Z,23.78
2022-08-27T12:57:38.593Z,23.67
2022-08-27T13:00:14.145Z,23.56
2022-08-27T13:02:53.366Z,23.66
2022-08-27T13:05:22.648Z,23.53
2022-08-27T13:07:51.652Z,23.76
2022-08-27T13:10:26.702Z,23.58
2022-08-27T13:13:16.739Z,23.77
2022-08-27T13:15:47.352Z,22.71
2022-08-27T13:18:16.258Z,23.40
2022-08-27T13:20:53.073Z,23.09
2022-08-27T13:23:24.022Z,23.08
2022-08-27T13:26:06.502Z,23.24
2022-08-27T13:28:35.761Z,23.14
2022-08-27T13:31:06.136Z,23.16
2022-08-27T13:33:36.649Z,22.95
2022-08-27T13:36:06.756Z,23.09
2022-08-27T13:38:43.660Z,23.42
2022-08-27T13:41:22.636Z,23.23
2022-08-27T13:43:50.167Z,23.20
2022-08-27T13:46:31.086Z,22.89
2022-08-27T13:49:00.346Z,23.24
2022-08-27T13:51:34.024Z,23.22
2022-08-27T13:54:13.487Z,23.23
2022-08-27T13:56:42.508Z,22.96
2022-08-27T13:59:15.268Z,22.71
2022-08-27T14:02:00.075Z,22.47
2022-08-27T14:04:44.771Z,22.60
2022-08-27T14:07:17.622Z,22.88
2022-08-27T14:09:57.012Z,22.65
2022-08-27T14:12:35.422Z,22.92
2022-08-27T14:15:43.445Z,23.37
2022-08-27T14:18:57.443Z,23.24
2022-08-27T14:21:22.288Z,23.16
2022-08-27T14:23:49.803Z,23.65
2022-08-27T14:26:17.521Z,24.01
2022-08-27T14:28:46.387Z,23.67
2022-08-27T14:31:15.322Z,24.66
2022-08-27T14:33:43.256Z,23.62
2022-08-27T14:36:11.280Z,24.02
2022-08-27T14:38:42.035Z,23.72
2022-08-27T14:41:09.365Z,23.84
2022-08-27T14:43:37.887Z,23.92
2022-08-27T14:46:07.819Z,23.67
2022-08-27T14:48:36.976Z,23.92
2022-08-27T14:51:12.945Z,23.76
2022-08-27T14:53:40.302Z,23.53
2022-08-27T14:56:08.139Z,23.82
2022-08-27T14:58:35.251Z,23.86
2022-08-27T15:01:03.703Z,24.87
2022-08-27T15:03:31.706Z,23.68
2022-08-27T15:05:58.888Z,23.77
2022-08-27T15:08:29.353Z,23.72
2022-08-27T15:11:00.007Z,24.26
2022-08-27T15:13:27.494Z,24.12
2022-08-27T15:15:54.923Z,24.87
2022-08-27T15:18:22.127Z,25.04
2022-08-27T15:20:50.275Z,24.35
2022-08-27T15:23:18.176Z,25.10
2022-08-27T15:25:46.454Z,25.21
2022-08-27T15:28:13.843Z,25.54
2022-08-27T15:30:41.241Z,25.68
2022-08-27T15:33:08.805Z,26.06
2022-08-27T15:35:35.971Z,25.93
2022-08-27T15:38:03.496Z,26.09
2022-08-27T15:40:35.307Z,26.63
2022-08-27T15:43:06.223Z,26.20
2022-08-27T15:45:33.767Z,26.61
2022-08-27T15:48:01.518Z,26.57
2022-08-27T15:50:31.248Z,26.55
2022-08-27T15:53:02.104Z,27.11
2022-08-27T15:55:32.973Z,27.45
2022-08-27T15:58:01.123Z,27.61
2022-08-27T16:00:30.270Z,27.38
2022-08-27T16:02:57.935Z,27.88
2022-08-27T16:05:34.189Z,27.52
2022-08-27T16:08:01.552Z,27.59
2022-08-27T16:10:29.001Z,27.23
2022-08-27T16:12:56.201Z,28.03
2022-08-27T16:15:23.635Z,27.71
2022-08-27T16:17:55.670Z,28.63
2022-08-27T16:20:24.806Z,28.37
2022-08-27T16:22:53.429Z,28.66
2022-08-27T16:25:23.319Z,29.45
2022-08-27T16:27:51.502Z,28.89
2022-08-27T16:30:19.695Z,29.78
2022-08-27T16:32:49.176Z,29.89
2022-08-27T16:35:19.531Z,29.10
2022-08-27T16:37:47.015Z,28.37
2022-08-27T16:40:15.300Z,29.51
2022-08-27T16:42:48.085Z,29.27
2022-08-27T16:45:17.684Z,29.50
2022-08-27T16:48:12.938Z,29.51
2022-08-27T16:50:41.228Z,30.54
2022-08-27T16:53:14.949Z,29.90
2022-08-27T16:55:44.073Z,30.08
2022-08-27T16:58:18.796Z,30.99
2022-08-27T17:00:47.345Z,30.66
2022-08-27T17:03:16.423Z,31.20
2022-08-27T17:05:43.630Z,30.58
2022-08-27T17:08:11.656Z,31.59
2022-08-27T17:10:45.723Z,31.55
2022-08-27T17:13:15.649Z,31.19
2022-08-27T17:15:44.199Z,32.45
2022-08-27T17:18:11.538Z,31.89
2022-08-27T17:20:38.855Z,32.88
2022-08-27T17:23:07.783Z,32.96
2022-08-27T17:25:34.906Z,32.74
2022-08-27T17:28:02.233Z,32.74
2022-08-27T17:30:29.558Z,32.66
2022-08-27T17:32:56.820Z,32.27
2022-08-27T17:35:24.449Z,32.53
2022-08-27T17:37:52.165Z,32.58
2022-08-27T17:40:19.530Z,32.75
2022-08-27T17:42:47.091Z,33.39
2022-08-27T17:45:16.591Z,33.49
2022-08-27T17:47:44.240Z,33.91
2022-08-27T17:50:11.455Z,33.34
2022-08-27T17:52:39.270Z,34.11
2022-08-27T17:55:07.316Z,33.93
2022-08-27T17:57:40.586Z,33.39
2022-08-27T18:00:12.103Z,33.61
2022-08-27T18:02:48.264Z,33.74
2022-08-27T18:05:19.372Z,33.58
2022-08-27T18:07:47.818Z,34.41
2022-08-27T18:10:18.511Z,33.88
2022-08-27T18:12:46.236Z,33.67
2022-08-27T18:15:21.014Z,34.24
2022-08-27T18:17:53.234Z,33.97
2022-08-27T18:20:23.123Z,34.93
2022-08-27T18:22:51.433Z,35.21
2022-08-27T18:25:21.082Z,33.95
2022-08-27T18:27:51.614Z,35.08
2022-08-27T18:30:19.572Z,34.55
2022-08-27T18:32:47.127Z,35.36
2022-08-27T18:35:22.273Z,35.48
2022-08-27T18:37:50.074Z,35.40
2022-08-27T18:40:19.885Z,35.59
2022-08-27T18:42:48.313Z,35.06
2022-08-27T18:45:19.506Z,35.54
2022-08-27T18:47:47.176Z,35.53
2022-08-27T18:50:19.096Z,36.13
2022-08-27T18:52:48.497Z,36.37
2022-08-27T18:55:18.790Z,36.49
2022-08-27T18:57:46.068Z,36.71
2022-08-27T19:00:15.859Z,36.93
2022-08-27T19:02:43.391Z,36.28
2022-08-27T19:05:12.232Z,37.01
2022-08-27T19:07:39.610Z,36.54
2022-08-27T19:10:07.874Z,36.71
2022-08-27T19:12:36.862Z,36.72
2022-08-27T19:15:04.559Z,36.46
2022-08-27T19:17:34.920Z,37.80
2022-08-27T19:20:04.118Z,37.72
2022-08-27T19:22:31.972Z,38.17
2022-08-27T19:24:59.936Z,38.21
2022-08-27T19:27:29.160Z,38.14
2022-08-27T19:29:56.507Z,37.90
2022-08-27T19:32:24.015Z,37.87
2022-08-27T19:34:51.289Z,38.03
2022-08-27T19:37:25.440Z,38.03
2022-08-27T19:39:53.204Z,37.87
2022-08-27T19:42:20.533Z,37.91
2022-08-27T19:44:48.080Z,37.47
2022-08-27T19:47:16.776Z,36.86
2022-08-27T19:49:49.877Z,37.50
2022-08-27T19:52:17.091Z,37.65
2022-08-27T19:55:09.850Z,37.99
2022-08-27T19:57:31.535Z,38.57
2022-08-27T19:59:58.773Z,38.47
2022-08-27T20:02:26.351Z,38.42
2022-08-27T20:05:19.811Z,38.59
2022-08-27T20:07:49.983Z,38.59
2022-08-27T20:10:18.767Z,38.64
2022-08-27T20:12:45.974Z,38.36
2022-08-27T20:15:13.244Z,38.71
2022-08-27T20:17:40.787Z,38.84
2022-08-27T20:20:08.906Z,39.14
2022-08-27T20:22:39.736Z,39.68
2022-08-27T20:25:07.390Z,39.01
2022-08-27T20:27:34.972Z,39.50
2022-08-27T20:30:04.694Z,39.64
2022-08-27T20:32:31.889Z,39.91
2022-08-27T20:34:59.004Z,39.17
2022-08-27T20:37:26.119Z,39.48
2022-08-27T20:39:53.565Z,39.77
2022-08-27T20:42:20.988Z,39.81
2022-08-27T20:44:49.026Z,39.62
2022-08-27T20:47:17.740Z,39.27
2022-08-27T20:49:45.004Z,40.36
2022-08-27T20:52:13.075Z,39.54
2022-08-27T20:54:40.831Z,40.50
2022-08-27T20:57:09.022Z,40.56
2022-08-27T20:59:55.209Z,41.04
2022-08-27T21:02:26.916Z,40.43
2022-08-27T21:04:55.042Z,40.75
2022-08-27T21:07:23.656Z,40.48
2022-08-27T21:09:56.823Z,40.64
2022-08-27T21:12:29.151Z,40.41
2022-08-27T21:14:58.059Z,40.85
2022-08-27T21:17:27.676Z,40.29
2022-08-27T21:19:55.724Z,39.98
2022-08-27T21:22:23.880Z,41.33
2022-08-27T21:24:52.358Z,40.90
2022-08-27T21:27:21.594Z,40.78
2022-08-27T21:29:49.509Z,40.02
2022-08-27T21:32:17.428Z,39.58
2022-08-27T21:34:44.849Z,40.10
2022-08-27T21:37:14.399Z,39.28
2022-08-27T21:39:42.694Z,39.19
2022-08-27T21:42:12.424Z,39.43
2022-08-27T21:44:39.708Z,39.86
2022-08-27T21:47:07.854Z,39.04
2022-08-27T21:49:35.273Z,39.98
2022-08-27T21:52:04.892Z,38.88
2022-08-27T21:54:34.012Z,39.64
2022-08-27T21:57:03.114Z,39.46
2022-08-27T21:59:31.912Z,39.82
2022-08-27T22:02:00.967Z,39.49
2022-08-27T22:04:30.610Z,39.38
2022-08-27T22:06:58.742Z,39.58
2022-08-27T22:09:27.302Z,40.09
2022-08-27T22:11:54.902Z,40.21
2022-08-27T22:14:22.386Z,39.68
2022-08-27T22:16:50.258Z,40.86
2022-08-27T22:19:18.000Z,40.96
2022-08-27T22:21:46.068Z,40.62
2022-08-27T22:24:13.424Z,40.92
2022-08-27T22:26:40.911Z,40.88
2022-08-27T22:29:08.244Z,41.05
2022-08-27T22:31:35.798Z,41.34
2022-08-27T22:34:03.168Z,40.99
2022-08-27T22:36:30.502Z,40.79
2022-08-27T22:38:59.572Z,41.08
2022-08-27T22:41:32.551Z,41.17
2022-08-27T22:44:00.299Z,40.90
2022-08-27T22:46:27.664Z,41.03
2022-08-27T22:48:54.837Z,41.64
2022-08-27T22:51:22.378Z,41.26
2022-08-27T22:53:49.485Z,41.53
2022-08-27T22:56:16.641Z,41.17
2022-08-27T22:58:46.025Z,41.68
2022-08-27T23:01:19.128Z,41.47
2022-08-27T23:03:46.409Z,40.95
2022-08-27T23:06:13.976Z,41.52
2022-08-27T23:08:41.173Z,41.75
2022-08-27T23:11:08.454Z,41.56
2022-08-27T23:13:35.615Z,41.54
2022-08-27T23:16:03.275Z,41.13
2022-08-27T23:18:30.571Z,41.39
2022-08-27T23:20:57.827Z,41.14
2022-08-27T23:23:29.918Z,40.88
2022-08-27T23:26:17.120Z,41.26
2022-08-27T23:28:45.059Z,40.46
2022-08-27T23:31:13.098Z,40.44
2022-08-27T23:33:41.107Z,40.34
2022-08-27T23:36:09.826Z,39.83
2022-08-27T23:38:37.580Z,39.97
2022-08-27T23:41:05.779Z,40.02
2022-08-27T23:43:32.951Z,40.62
2022-08-27T23:46:00.157Z,40.29
2022-08-27T23:48:27.477Z,40.57
2022-08-27T23:50:54.693Z,40.75
2022-08-27T23:53:22.092Z,41.09
2022-08-27T23:55:49.333Z,41.09
2022-08-27T23:58:16.499Z,41.10
